Bunch, Oklahoma
Current Conditions -  °F | °C
As of 8:55 PM on Sunday 21 Dec 2014 (Local Time) from KJSV Reporting Station
Drizzle Drizzle  
Wind Chill: 45°   Ceiling: 1300
Heat Index: 45°   Visibility: 3mi
Dew Point: 43°   Wind: 3mph
Humidity: 93%   Direction: 110°ESE
Pressure: 29.86"   Gusts: NA
Location:  35.68°N, 94.76°W
Report Text: KJSV 220255Z AUTO 11003KT 3SM -DZ OVC013 07/06 A2986 RMK AO2
Loading
Personal Weather Stations






























Interactive Weather Map New forecast layout! Learn more

10-Day Weather Forecast

Advertisements
Track Severe Weather on mobile